createdAt,value
2019-01-10T00:02:00.536Z,94077.52
2019-01-10T00:04:31.839Z,94067.52
2019-01-10T00:07:02.035Z,94062.41
2019-01-10T00:09:31.369Z,94072.95
2019-01-10T00:12:00.738Z,94072.19
2019-01-10T00:14:30.104Z,94074.86
2019-01-10T00:16:59.429Z,94075.57
2019-01-10T00:19:28.783Z,94086.10
2019-01-10T00:21:58.216Z,94082.86
2019-01-10T00:24:28.482Z,94086.61
2019-01-10T00:26:59.726Z,94094.19
2019-01-10T00:29:29.114Z,94094.23
2019-01-10T00:31:58.531Z,94101.59
2019-01-10T00:34:27.895Z,94099.92
2019-01-10T00:36:57.230Z,94106.67
2019-01-10T00:39:26.905Z,94100.36
2019-01-10T00:41:56.221Z,94105.20
2019-01-10T00:44:25.973Z,94105.25
2019-01-10T00:46:55.585Z,94106.02
2019-01-10T00:49:24.904Z,94104.91
2019-01-10T00:51:54.253Z,94106.99
2019-01-10T00:54:26.170Z,94114.92
2019-01-10T00:56:56.949Z,94108.38
2019-01-10T00:59:26.338Z,94106.72
2019-01-10T01:02:01.984Z,94110.56
2019-01-10T01:04:31.326Z,94117.54
2019-01-10T01:07:00.724Z,94121.64
2019-01-10T01:09:30.064Z,94117.54
2019-01-10T01:11:59.387Z,94111.41
2019-01-10T01:14:28.733Z,94108.73
2019-01-10T01:16:58.394Z,94106.23
2019-01-10T01:19:27.691Z,94114.91
2019-01-10T01:21:57.331Z,94113.52
2019-01-10T01:24:26.688Z,94114.80
2019-01-10T01:26:56.224Z,94099.78
2019-01-10T01:29:25.555Z,94100.67
2019-01-10T01:31:57.665Z,94095.72
2019-01-10T01:34:27.010Z,94094.05
2019-01-10T01:36:56.402Z,94100.78
2019-01-10T01:39:26.799Z,94092.81
2019-01-10T01:41:56.117Z,94085.38
2019-01-10T01:44:26.436Z,94081.36
2019-01-10T01:46:56.079Z,93927.56
2019-01-10T01:49:25.808Z,94066.55
2019-01-10T01:51:55.166Z,94063.39
2019-01-10T01:54:24.962Z,94065.95
2019-01-10T01:56:54.333Z,94070.67
2019-01-10T01:59:24.048Z,94055.56
2019-01-10T02:01:53.405Z,94054.24
2019-01-10T02:04:25.188Z,94061.41
2019-01-10T02:06:54.562Z,94062.25
2019-01-10T02:09:23.920Z,94065.40
2019-01-10T02:11:53.315Z,94072.47
2019-01-10T02:14:24.770Z,94070.98
2019-01-10T02:16:54.114Z,94075.92
2019-01-10T02:19:23.523Z,94071.94
2019-01-10T02:21:52.874Z,94074.19
2019-01-10T02:24:22.218Z,94088.28
2019-01-10T02:26:51.804Z,94079.73
2019-01-10T02:29:21.140Z,94071.25
2019-01-10T02:31:50.545Z,94071.22
2019-01-10T02:34:20.001Z,94075.31
2019-01-10T02:36:49.337Z,94064.66
2019-01-10T02:39:18.670Z,94068.91
2019-01-10T02:41:47.986Z,94064.86
2019-01-10T02:44:17.311Z,94063.57
2019-01-10T02:46:46.672Z,94075.69
2019-01-10T02:49:16.010Z,94082.38
2019-01-10T02:51:45.363Z,94087.01
2019-01-10T02:54:14.732Z,94081.44
2019-01-10T02:56:44.049Z,94081.97
2019-01-10T02:59:13.429Z,94085.66
2019-01-10T03:01:42.849Z,94090.27
2019-01-10T03:04:12.541Z,94073.02
2019-01-10T03:06:42.249Z,94073.05
2019-01-10T03:09:11.679Z,94072.98
2019-01-10T03:11:41.050Z,94073.28
2019-01-10T03:14:10.405Z,94066.85
2019-01-10T03:16:39.707Z,94075.24
2019-01-10T03:19:09.044Z,94068.53
2019-01-10T03:21:38.401Z,94073.70
2019-01-10T03:24:07.888Z,94070.23
2019-01-10T03:26:37.250Z,94067.70
2019-01-10T03:29:06.615Z,94075.72
2019-01-10T03:31:35.956Z,94072.41
2019-01-10T03:34:05.666Z,94072.55
2019-01-10T03:36:35.005Z,94070.41
2019-01-10T03:39:07.922Z,94067.17
2019-01-10T03:41:37.296Z,94067.02
2019-01-10T03:44:06.744Z,94065.83
2019-01-10T03:46:36.460Z,94072.37
2019-01-10T03:49:05.823Z,94060.42
2019-01-10T03:51:35.159Z,94064.88
2019-01-10T03:54:04.527Z,94070.22
2019-01-10T03:56:33.896Z,94076.36
2019-01-10T03:59:03.229Z,94066.82
2019-01-10T04:01:32.597Z,94060.91
2019-01-10T04:04:02.001Z,94058.20
2019-01-10T04:06:31.354Z,94067.58
2019-01-10T04:09:00.698Z,94068.67
2019-01-10T04:11:30.141Z,94064.50
2019-01-10T04:13:59.450Z,94070.55
2019-01-10T04:16:28.814Z,94050.84
2019-01-10T04:18:58.234Z,94063.25
2019-01-10T04:21:27.588Z,94072.11
2019-01-10T04:23:57.289Z,94064.42
2019-01-10T04:26:26.668Z,94072.25
2019-01-10T04:28:56.034Z,94084.05
2019-01-10T04:31:25.384Z,94078.77
2019-01-10T04:33:54.770Z,94090.27
2019-01-10T04:36:24.490Z,94087.03
2019-01-10T04:38:53.811Z,94094.32
2019-01-10T04:41:23.146Z,94099.08
2019-01-10T04:43:52.502Z,94102.89
2019-01-10T04:46:21.964Z,94111.01
2019-01-10T04:48:51.337Z,94119.19
2019-01-10T04:51:20.682Z,94120.44
2019-01-10T04:53:50.118Z,94128.56
2019-01-10T04:56:19.462Z,94120.32
2019-01-10T04:58:48.993Z,94116.95
2019-01-10T05:01:18.357Z,94110.45
2019-01-10T05:03:47.651Z,94122.44
2019-01-10T05:06:16.988Z,94133.22
2019-01-10T05:08:46.322Z,94134.03
2019-01-10T05:11:15.650Z,94146.75
2019-01-10T05:13:45.579Z,94148.53
2019-01-10T05:16:14.895Z,94160.91
2019-01-10T05:18:44.262Z,94159.56
2019-01-10T05:21:13.613Z,94157.38
2019-01-10T05:23:42.992Z,94170.50
2019-01-10T05:26:12.416Z,94171.92
2019-01-10T05:28:41.813Z,94175.05
2019-01-10T05:31:11.185Z,94180.01
2019-01-10T05:33:40.623Z,94176.18
2019-01-10T05:36:10.064Z,94183.00
2019-01-10T05:38:39.448Z,94194.34
2019-01-10T05:41:08.938Z,94196.44
2019-01-10T05:43:38.317Z,94193.53
2019-01-10T05:46:07.691Z,94202.67
2019-01-10T05:48:37.089Z,94200.85
2019-01-10T05:51:06.486Z,94212.77
2019-01-10T05:53:35.874Z,94209.83
2019-01-10T05:56:15.011Z,94213.74
2019-01-10T05:58:36.920Z,94216.36
2019-01-10T06:01:07.047Z,94219.53
2019-01-10T06:03:36.453Z,94210.08
2019-01-10T06:06:05.871Z,94210.38
2019-01-10T06:08:35.247Z,94221.21
2019-01-10T06:11:04.612Z,94046.50
2019-01-10T06:13:34.044Z,94222.58
2019-01-10T06:16:03.441Z,94219.58
2019-01-10T06:18:32.831Z,94231.97
2019-01-10T06:21:02.202Z,94235.73
2019-01-10T06:23:31.658Z,94242.70
2019-01-10T06:26:01.519Z,94251.91
2019-01-10T06:28:30.919Z,94254.03
2019-01-10T06:31:00.306Z,94251.50
2019-01-10T06:33:29.672Z,94263.88
2019-01-10T06:35:59.139Z,94270.73
2019-01-10T06:38:28.573Z,94258.29
2019-01-10T06:40:57.952Z,94263.88
2019-01-10T06:43:27.318Z,94260.38
2019-01-10T06:45:56.712Z,94263.57
2019-01-10T06:48:26.085Z,94265.06
2019-01-10T06:50:55.454Z,94278.48
2019-01-10T06:53:24.828Z,94275.14
2019-01-10T06:55:54.246Z,94281.88
2019-01-10T06:58:23.623Z,94281.05
2019-01-10T07:00:53.005Z,94274.66
2019-01-10T07:03:22.376Z,94281.25
2019-01-10T07:05:51.843Z,94280.96
2019-01-10T07:08:21.191Z,94281.68
2019-01-10T07:10:50.548Z,94293.34
2019-01-10T07:13:19.939Z,94293.05
2019-01-10T07:15:49.260Z,94283.12
2019-01-10T07:18:18.692Z,94290.35
2019-01-10T07:20:48.074Z,94290.02
2019-01-10T07:23:17.405Z,94290.76
2019-01-10T07:25:46.812Z,94289.07
2019-01-10T07:28:26.020Z,94284.36
2019-01-10T07:30:59.795Z,94284.13
2019-01-10T07:33:29.226Z,94291.21
2019-01-10T07:35:59.507Z,94280.20
2019-01-10T07:38:29.070Z,94281.19
2019-01-10T07:40:58.451Z,94269.98
2019-01-10T07:43:28.571Z,94262.26
2019-01-10T07:45:59.414Z,94266.55
2019-01-10T07:48:29.251Z,94264.25
2019-01-10T07:50:58.616Z,94249.22
2019-01-10T07:53:27.925Z,94253.98
2019-01-10T07:55:57.261Z,94258.08
2019-01-10T07:58:26.740Z,94262.41
2019-01-10T08:00:56.120Z,94268.81
2019-01-10T08:03:27.058Z,94276.45
2019-01-10T08:05:56.469Z,94277.89
2019-01-10T08:08:25.816Z,94272.78
2019-01-10T08:10:55.215Z,94290.56
2019-01-10T08:13:24.535Z,94276.55
2019-01-10T08:15:54.462Z,94273.72
2019-01-10T08:18:23.826Z,94270.20
2019-01-10T08:20:53.273Z,94271.30
2019-01-10T08:23:25.661Z,94265.79
2019-01-10T08:25:55.002Z,94264.83
2019-01-10T08:28:24.382Z,94274.98
2019-01-10T08:30:54.194Z,94284.08
2019-01-10T08:33:23.594Z,94285.97
2019-01-10T08:35:52.957Z,94278.09
2019-01-10T08:38:22.351Z,94268.13
2019-01-10T09:56:49.135Z,94189.37
2019-01-10T09:59:30.567Z,94192.36
2019-01-10T11:31:20.012Z,94116.17
2019-01-10T11:37:04.719Z,94119.70
2019-01-10T11:43:42.647Z,94117.58
2019-01-10T11:53:03.012Z,94100.80
2019-01-10T11:59:00.571Z,94092.72
2019-01-10T12:01:37.027Z,94092.64
2019-01-10T12:04:10.054Z,94094.48
2019-01-10T12:07:03.351Z,94088.14
2019-01-10T12:09:35.996Z,94085.36
2019-01-10T12:12:05.524Z,94081.87
2019-01-10T12:14:35.996Z,94091.89
2019-01-10T12:17:05.454Z,94093.96
2019-01-10T12:19:34.870Z,94086.67
2019-01-10T12:22:04.691Z,94089.89
2019-01-10T12:24:35.376Z,94101.80
2019-01-10T12:27:05.118Z,94093.25
2019-01-10T12:29:36.315Z,94101.63
2019-01-10T12:32:05.639Z,94096.91
2019-01-10T12:34:35.031Z,94075.34
2019-01-10T12:37:04.372Z,94079.31
2019-01-10T12:39:33.742Z,94081.20
2019-01-10T12:42:03.152Z,94082.45
2019-01-10T12:44:32.495Z,94074.77
2019-01-10T12:47:02.206Z,94069.77
2019-01-10T12:49:31.526Z,94059.27
2019-01-10T12:52:00.880Z,94050.60
2019-01-10T12:54:30.663Z,94051.62
2019-01-10T12:57:00.072Z,94079.09
2019-01-10T12:59:29.713Z,94083.85
2019-01-10T13:01:59.061Z,94088.70
2019-01-10T13:04:28.429Z,94091.48
2019-01-10T13:06:57.752Z,94093.39
2019-01-10T13:09:27.170Z,94100.58
2019-01-10T13:11:56.824Z,94094.84
2019-01-10T13:14:28.945Z,94096.95
2019-01-10T13:16:58.375Z,94106.28
2019-01-10T13:19:27.710Z,94094.48
2019-01-10T13:21:57.109Z,94102.34
2019-01-10T13:24:26.468Z,94087.82
2019-01-10T13:26:55.863Z,94081.03
2019-01-10T13:29:25.217Z,94082.75
2019-01-10T13:31:54.640Z,94084.52
2019-01-10T13:34:24.085Z,94097.62
2019-01-10T13:36:54.537Z,94088.31
2019-01-10T13:39:23.889Z,94079.13
2019-01-10T13:41:53.321Z,94082.83
2019-01-10T13:44:22.654Z,94097.34
2019-01-10T13:46:55.730Z,94108.13
2019-01-10T13:49:23.162Z,94105.12
2019-01-10T13:51:54.164Z,94108.66
2019-01-10T13:54:23.556Z,94110.29
2019-01-10T13:56:52.961Z,94080.76
2019-01-10T13:59:22.323Z,94107.78
2019-01-10T14:01:51.615Z,94110.55
2019-01-10T14:04:20.944Z,94097.30
2019-01-10T14:06:50.298Z,94113.50
2019-01-10T14:09:19.666Z,94096.02
2019-01-10T14:11:49.063Z,94082.52
2019-01-10T14:14:18.482Z,94077.47
2019-01-10T14:16:48.181Z,94072.91
2019-01-10T14:19:17.966Z,94089.66
2019-01-10T14:21:47.351Z,94099.41
2019-01-10T14:24:17.066Z,94099.64
2019-01-10T14:26:46.594Z,94108.87
2019-01-10T14:29:21.893Z,94119.19
2019-01-10T14:32:04.176Z,94116.47
2019-01-10T14:34:44.260Z,94111.47
2019-01-10T14:37:14.527Z,94129.48
2019-01-10T14:39:45.230Z,94125.46
2019-01-10T14:42:18.063Z,94128.16
2019-01-10T14:44:50.110Z,94118.94
2019-01-10T14:47:21.888Z,94119.77
2019-01-10T14:49:51.361Z,94122.91
2019-01-10T14:52:21.066Z,94122.06
2019-01-10T14:54:50.448Z,94100.56
2019-01-10T14:57:19.798Z,94114.12
2019-01-10T14:59:50.062Z,94118.14
2019-01-10T15:02:19.365Z,94118.09
2019-01-10T15:04:48.789Z,94119.32
2019-01-10T15:07:18.157Z,94125.52
2019-01-10T15:09:48.933Z,94135.09
2019-01-10T15:12:18.330Z,94127.14
2019-01-10T15:14:47.671Z,94137.39
2019-01-10T15:17:17.110Z,94139.73
2019-01-10T15:19:46.438Z,94132.83
2019-01-10T15:22:15.803Z,94128.59
2019-01-10T15:24:46.741Z,94130.77
2019-01-10T15:27:16.042Z,94115.09
2019-01-10T15:29:45.359Z,94126.05
2019-01-10T15:32:14.685Z,94120.44
2019-01-10T15:34:44.053Z,94115.66
2019-01-10T15:37:13.412Z,94125.27
2019-01-10T15:39:42.751Z,94113.22
2019-01-10T15:42:12.135Z,94031.27
2019-01-10T15:44:41.568Z,94094.17
2019-01-10T15:47:10.948Z,94097.39
2019-01-10T15:49:40.315Z,94129.34
2019-01-10T15:52:09.677Z,94168.36
2019-01-10T15:54:39.272Z,94153.78
2019-01-10T15:57:08.607Z,94161.29
2019-01-10T15:59:37.962Z,94153.30
2019-01-10T16:02:07.386Z,94162.22
2019-01-10T16:04:36.859Z,94162.56
2019-01-10T16:07:07.847Z,94166.81
2019-01-10T16:09:38.093Z,94160.63
2019-01-10T16:12:07.583Z,94161.81
2019-01-10T16:14:36.956Z,94171.39
2019-01-10T16:17:06.334Z,94173.64
2019-01-10T16:19:35.719Z,94192.03
2019-01-10T16:22:05.234Z,94182.01
2019-01-10T16:24:35.174Z,94133.85
2019-01-10T16:27:04.643Z,94203.69
2019-01-10T16:29:33.979Z,94189.70
2019-01-10T16:32:03.331Z,94193.97
2019-01-10T16:34:32.738Z,94202.33
2019-01-10T16:37:02.129Z,94212.08
2019-01-10T16:39:31.481Z,94211.52
2019-01-10T16:42:00.859Z,94215.45
2019-01-10T16:44:32.944Z,94208.23
2019-01-10T16:47:02.724Z,94208.98
2019-01-10T16:49:32.202Z,94213.45
2019-01-10T16:52:01.560Z,94215.27
2019-01-10T16:54:31.228Z,94223.70
2019-01-10T16:57:00.560Z,94214.20
2019-01-10T16:59:29.943Z,94201.45
2019-01-10T17:01:59.302Z,94186.41
2019-01-10T17:04:28.697Z,94179.70
2019-01-10T17:06:58.601Z,94171.42
2019-01-10T17:09:28.013Z,94183.74
2019-01-10T17:11:57.381Z,94185.33
2019-01-10T17:14:26.755Z,94190.63
2019-01-10T17:16:56.111Z,94195.36
2019-01-10T17:19:25.485Z,94189.08
2019-01-10T17:21:54.823Z,94196.31
2019-01-10T17:24:24.198Z,94207.39
2019-01-10T17:26:53.587Z,94213.52
2019-01-10T17:29:22.941Z,94216.39
2019-01-10T17:31:52.256Z,94208.41
2019-01-10T17:34:23.030Z,94198.48
2019-01-10T17:36:52.488Z,94195.45
2019-01-10T17:39:21.860Z,94205.22
2019-01-10T17:41:51.649Z,94222.73
2019-01-10T17:44:20.965Z,93845.84
2019-01-10T17:46:50.303Z,94239.36
2019-01-10T17:49:20.070Z,94224.59
2019-01-10T17:51:49.379Z,94232.05
2019-01-10T17:54:18.749Z,94237.39
2019-01-10T17:56:48.088Z,94221.23
2019-01-10T17:59:17.522Z,94211.47
2019-01-10T18:01:46.849Z,94218.28
2019-01-10T18:04:16.216Z,94223.23
2019-01-10T18:06:46.270Z,94212.03
2019-01-10T18:09:15.671Z,94208.80
2019-01-10T18:11:49.233Z,94221.97
2019-01-10T18:14:18.599Z,94233.31
2019-01-10T18:16:47.965Z,94238.13
2019-01-10T18:19:17.344Z,94238.25
2019-01-10T18:21:46.643Z,94253.96
2019-01-10T18:24:15.963Z,94246.81
2019-01-10T18:26:48.385Z,94254.44
2019-01-10T18:29:18.079Z,94245.60
2019-01-10T18:31:47.735Z,94232.41
2019-01-10T18:34:17.040Z,94247.95
2019-01-10T18:36:46.389Z,94247.43
2019-01-10T18:39:16.213Z,94243.14
2019-01-10T18:42:06.874Z,94245.45
2019-01-10T18:44:48.408Z,94240.30
2019-01-10T18:47:25.367Z,94252.41
2019-01-10T18:50:50.196Z,94248.21
2019-01-10T18:53:44.571Z,94265.88
2019-01-10T18:56:13.929Z,94256.98
2019-01-10T18:58:43.267Z,94261.05
2019-01-10T19:01:12.678Z,94269.74
2019-01-10T19:03:42.064Z,94272.55
2019-01-10T19:06:11.449Z,94264.37
2019-01-10T19:08:43.803Z,94274.21
2019-01-10T19:11:13.520Z,94268.20
2019-01-10T19:13:42.904Z,94262.09
2019-01-10T19:16:14.084Z,94266.98
2019-01-10T19:18:43.471Z,94277.34
2019-01-10T19:21:13.383Z,94279.61
2019-01-10T19:23:42.746Z,94288.67
2019-01-10T19:26:12.150Z,94292.45
2019-01-10T19:28:41.546Z,94295.88
2019-01-10T19:31:11.000Z,94289.72
2019-01-10T19:33:41.323Z,94290.84
2019-01-10T19:36:11.118Z,94295.23
2019-01-10T19:38:40.464Z,94299.81
2019-01-10T19:41:09.815Z,94299.66
2019-01-10T19:43:40.377Z,94307.16
2019-01-10T19:46:11.718Z,94302.53
2019-01-10T19:48:41.100Z,94310.03
2019-01-10T19:51:10.488Z,94308.50
2019-01-10T19:53:39.874Z,94308.37
2019-01-10T19:56:09.215Z,94309.63
2019-01-10T19:58:39.575Z,94301.61
2019-01-10T20:01:08.980Z,94316.22
2019-01-10T20:03:41.572Z,94324.30
2019-01-10T20:06:11.018Z,94326.27
2019-01-10T20:08:40.366Z,94337.26
2019-01-10T20:11:10.113Z,94341.56
2019-01-10T20:13:39.515Z,94351.63
2019-01-10T20:16:11.484Z,94353.02
2019-01-10T20:18:40.815Z,94352.58
2019-01-10T20:21:10.644Z,94357.11
2019-01-10T20:23:40.401Z,94364.09
2019-01-10T20:26:09.932Z,94356.41
2019-01-10T20:28:39.248Z,94353.30
2019-01-10T20:31:08.926Z,94358.12
2019-01-10T20:33:38.395Z,94364.23
2019-01-10T20:36:07.789Z,94376.67
2019-01-10T20:38:37.130Z,94375.34
2019-01-10T20:41:06.440Z,94390.02
2019-01-10T20:43:38.080Z,94388.34
2019-01-10T20:46:08.137Z,94384.94
2019-01-10T20:48:37.771Z,94387.45
2019-01-10T20:51:07.435Z,94374.25
2019-01-10T20:53:36.781Z,94383.03
2019-01-10T20:56:06.273Z,94392.58
2019-01-10T20:58:36.097Z,94390.73
2019-01-10T21:01:05.453Z,94410.62
2019-01-10T21:03:34.936Z,94418.81
2019-01-10T21:06:04.429Z,94423.07
2019-01-10T21:08:34.818Z,94419.90
2019-01-10T21:11:04.168Z,94428.67
2019-01-10T21:13:33.595Z,94449.55
2019-01-10T21:16:02.987Z,94452.48
2019-01-10T21:18:32.375Z,94454.83
2019-01-10T21:21:01.682Z,94460.14
2019-01-10T21:23:31.006Z,94464.86
2019-01-10T21:26:00.357Z,94462.45
2019-01-10T21:28:30.297Z,94466.45
2019-01-10T21:31:02.105Z,94472.84
2019-01-10T21:33:31.410Z,94471.83
2019-01-10T21:36:00.910Z,94477.88
2019-01-10T21:38:30.671Z,94485.11
2019-01-10T21:41:00.132Z,94490.89
2019-01-10T21:43:29.462Z,94493.05
2019-01-10T21:45:59.049Z,94500.94
2019-01-10T21:48:34.870Z,94501.20
2019-01-10T21:51:00.754Z,94511.81
2019-01-10T21:53:30.086Z,94510.81
2019-01-10T21:55:59.394Z,94522.45
2019-01-10T21:58:28.974Z,94518.74
2019-01-10T22:00:58.310Z,94526.15
2019-01-10T22:03:27.671Z,94536.70
2019-01-10T22:05:56.995Z,94537.23
2019-01-10T22:08:26.349Z,94550.69
2019-01-10T22:10:55.761Z,94546.44
2019-01-10T22:13:25.120Z,94548.55
2019-01-10T22:15:54.465Z,94559.39
2019-01-10T22:18:23.922Z,94554.59
2019-01-10T22:20:53.275Z,94558.81
2019-01-10T22:23:22.646Z,94558.00
2019-01-10T22:25:52.014Z,94569.85
2019-01-10T22:28:21.444Z,94559.49
2019-01-10T22:30:51.083Z,94571.14
2019-01-10T22:33:20.435Z,94430.37
2019-01-10T22:35:49.729Z,94580.34
2019-01-10T22:38:19.538Z,94585.60
2019-01-10T22:40:48.893Z,94592.23
2019-01-10T22:43:18.656Z,94589.79
2019-01-10T22:45:48.029Z,94592.44
2019-01-10T22:48:17.434Z,94596.39
2019-01-10T22:50:46.795Z,94592.16
2019-01-10T22:53:16.125Z,94602.24
2019-01-10T22:55:45.490Z,94601.77
2019-01-10T22:58:15.354Z,94610.28
2019-01-10T23:01:02.902Z,94611.33
2019-01-10T23:03:33.445Z,94613.77
2019-01-10T23:06:02.976Z,94611.89
2019-01-10T23:08:56.160Z,94617.20
2019-01-10T23:11:26.242Z,94623.05
2019-01-10T23:14:13.701Z,94635.20
2019-01-10T23:16:43.126Z,94638.91
2019-01-10T23:19:12.465Z,94646.30
2019-01-10T23:21:42.491Z,94638.12
2019-01-10T23:24:19.297Z,94649.00
2019-01-10T23:26:55.099Z,94646.08
2019-01-10T23:29:34.755Z,94649.53
2019-01-10T23:32:15.759Z,94657.48
2019-01-10T23:34:52.529Z,94656.98
2019-01-10T23:37:23.525Z,94643.78
2019-01-10T23:39:53.360Z,94655.98
2019-01-10T23:42:22.843Z,94652.05
2019-01-10T23:44:52.219Z,94662.35
2019-01-10T23:47:21.598Z,94660.23
2019-01-10T23:49:50.944Z,94666.30
2019-01-10T23:52:20.299Z,94667.97
2019-01-10T23:54:49.692Z,94655.56
2019-01-10T23:57:19.092Z,94660.63
2019-01-10T23:59:48.448Z,94673.59
